San Diego, California
Traffic Map
Current Weather Conditions
San Diego, California
Clear
Clear
60°
Feels Like: 60°
Wind Chill: 60° Ceiling: Unl
Heat Index: 60° Visibility: 10mi
Dew Point: 48° Wind: 0mph
Humidity: 64% Direction: ° ()
Pressure: 30.08in Gusts: 0mph
Raw Report DataKSAN 221351Z 00000KT 10SM CLR 16/09 A3008 RMK AO2 SLP185 T01560089 $
Traffic Incident Summary
Active as of:
Severity:
Category:
InformationThere was an issue retrieving the traffic information for this location. Please try a different location or try again shortly.
Advertisements